Millville, Iowa
Current Conditions -  °F | °C
As of 8:35 AM on Tuesday 27 Jan 2015 (Local Time) from KPDC Reporting Station
Overcast Overcast  
Wind Chill: 23°   Ceiling: 2500
Heat Index: 30°   Visibility: 10mi
Dew Point: 20°   Wind: 7mph
Humidity: 66%   Direction: 360°N
Pressure: 30.16"   Gusts: NA
Location:  42.743°N, 91.1647°W
Report Text: KPDC 271435Z AUTO 36006KT 10SM OVC025 M01/M07 A3016 RMK AO2 T10101067
Loading
Personal Weather Stations






























Interactive Weather Map New forecast layout! Learn more

10-Day Weather Forecast

Advertisements
Track Severe Weather on mobile